Time;durP1;ratioP1;P1;durP2;ratioP2;P2;SDS_P1;SDS_P2;PMS_P1;PMS_P2;Temp;Humidity;BMP_temperature;BMP_pressure;BME280_temperature;BME280_humidity;BME280_pressure;Samples;Min_cycle;Max_cycle;Signal;HPM_P1;HPM_P2
2024/01/26 00:02:07;;;;;;;8.52;4.35;;;5.60;99.90;;;;;;4990529;28;20038;-74
2024/01/26 00:04:33;;;;;;;7.40;3.97;;;5.90;99.90;;;;;;4972040;28;20100;-74
2024/01/26 00:06:58;;;;;;;9.65;3.72;;;6.00;99.90;;;;;;4993796;28;20048;-74
2024/01/26 00:09:24;;;;;;;9.63;4.38;;;5.90;99.90;;;;;;4994571;28;20077;-74
2024/01/26 00:11:50;;;;;;;6.45;3.60;;;5.90;99.90;;;;;;4993674;28;20057;-75
2024/01/26 00:14:16;;;;;;;8.13;4.05;;;5.70;99.90;;;;;;4995383;28;20472;-74
2024/01/26 00:16:42;;;;;;;10.27;5.70;;;5.60;99.90;;;;;;4991614;28;20038;-74
2024/01/26 00:19:08;;;;;;;11.35;5.50;;;5.50;99.90;;;;;;4995786;28;20026;-73
2024/01/26 00:21:34;;;;;;;11.63;5.93;;;5.30;99.90;;;;;;4995764;28;20046;-74
2024/01/26 00:24:00;;;;;;;10.00;4.93;;;5.30;99.90;;;;;;4994367;28;20041;-74
2024/01/26 00:26:25;;;;;;;7.43;3.30;;;5.40;99.90;;;;;;4993629;28;20030;-75
2024/01/26 00:28:51;;;;;;;8.35;3.88;;;5.70;99.90;;;;;;4996705;28;20638;-74
2024/01/26 00:31:18;;;;;;;8.95;4.53;;;5.40;99.90;;;;;;4994799;28;20030;-74
2024/01/26 00:33:44;;;;;;;6.93;4.28;;;5.20;99.90;;;;;;4995617;28;21558;-73
2024/01/26 00:36:11;;;;;;;8.23;4.32;;;5.00;99.90;;;;;;4994385;28;20485;-74
2024/01/26 00:38:37;;;;;;;10.48;4.63;;;4.80;99.90;;;;;;4994543;28;20054;-73
2024/01/26 00:41:03;;;;;;;8.05;4.15;;;4.60;99.90;;;;;;4996107;28;20124;-73
2024/01/26 00:43:28;;;;;;;6.40;3.67;;;4.40;99.90;;;;;;4995694;28;20042;-73
2024/01/26 00:45:54;;;;;;;7.47;4.22;;;4.60;99.90;;;;;;4994563;28;20487;-74
2024/01/26 00:48:21;;;;;;;6.40;3.80;;;4.90;99.90;;;;;;4995268;28;20029;-74
2024/01/26 00:50:50;;;;;;;9.50;4.50;;;4.70;99.90;;;;;;4995593;28;20038;-74
2024/01/26 00:53:18;;;;;;;10.65;4.78;;;4.60;99.90;;;;;;4994962;28;20034;-74
2024/01/26 00:55:44;;;;;;;7.90;3.90;;;4.70;99.90;;;;;;4994539;28;20045;-74
2024/01/26 00:58:10;;;;;;;8.23;3.75;;;4.60;99.90;;;;;;4995397;28;20041;-74
2024/01/26 01:00:36;;;;;;;7.53;3.65;;;4.60;99.90;;;;;;4994825;28;20030;-73
2024/01/26 01:03:04;;;;;;;5.32;3.05;;;4.80;99.90;;;;;;4994629;28;20096;-73
2024/01/26 01:05:29;;;;;;;5.50;3.20;;;5.10;99.90;;;;;;4978078;28;20041;-74
2024/01/26 01:07:55;;;;;;;6.22;3.40;;;5.20;99.90;;;;;;4995645;28;20034;-73
2024/01/26 01:10:21;;;;;;;9.23;4.70;;;4.90;99.90;;;;;;4994209;28;20038;-74
2024/01/26 01:12:46;;;;;;;6.88;4.15;;;5.00;99.90;;;;;;4994640;28;20405;-73
2024/01/26 01:15:12;;;;;;;7.40;4.07;;;4.90;99.90;;;;;;4995922;28;20044;-74
2024/01/26 01:17:43;;;;;;;7.80;4.90;;;4.80;99.90;;;;;;4995191;28;20046;-73
2024/01/26 01:20:10;;;;;;;6.20;3.88;;;4.70;99.90;;;;;;4994068;28;20037;-74
2024/01/26 01:22:39;;;;;;;6.82;4.47;;;4.60;99.90;;;;;;4995772;28;20061;-74
2024/01/26 01:25:06;;;;;;;8.07;3.80;;;4.50;99.90;;;;;;4995739;28;20579;-73
2024/01/26 01:27:32;;;;;;;6.88;3.75;;;4.50;99.90;;;;;;4994545;28;20045;-73
2024/01/26 01:29:59;;;;;;;8.98;3.85;;;4.40;99.90;;;;;;4995207;28;20124;-74
2024/01/26 01:32:25;;;;;;;6.30;3.60;;;4.40;99.90;;;;;;4996014;28;20034;-73
2024/01/26 01:34:52;;;;;;;6.13;3.65;;;4.40;99.90;;;;;;4996552;28;20038;-73
2024/01/26 01:37:17;;;;;;;7.80;4.38;;;4.40;99.90;;;;;;4999776;28;20049;-74
2024/01/26 01:39:43;;;;;;;8.25;3.95;;;4.20;99.90;;;;;;4998737;28;20030;-73
2024/01/26 01:42:14;;;;;;;8.68;4.15;;;4.30;99.90;;;;;;4998737;28;20033;-74
2024/01/26 01:44:43;;;;;;;9.10;4.10;;;4.30;99.90;;;;;;4999443;28;20041;-73
2024/01/26 01:47:10;;;;;;;8.23;5.03;;;4.30;99.90;;;;;;4996734;28;20046;-74
2024/01/26 01:49:40;;;;;;;8.23;4.38;;;4.30;99.90;;;;;;4997664;28;20034;-73
2024/01/26 01:52:09;;;;;;;7.90;5.32;;;4.30;99.90;;;;;;4998991;28;20566;-73
2024/01/26 01:54:37;;;;;;;8.30;5.03;;;4.20;99.90;;;;;;4996685;28;20468;-74
2024/01/26 01:57:04;;;;;;;9.02;5.35;;;4.10;99.90;;;;;;4998775;28;20491;-74
2024/01/26 01:59:30;;;;;;;8.77;5.28;;;4.10;99.90;;;;;;4998254;28;20046;-73
2024/01/26 02:01:56;;;;;;;9.45;4.75;;;4.20;99.90;;;;;;4997949;28;20037;-73
2024/01/26 02:04:22;;;;;;;9.07;4.20;;;4.20;99.90;;;;;;4999350;28;20034;-74
2024/01/26 02:06:55;;;;;;;7.13;3.78;;;4.10;99.90;;;;;;4997783;28;20083;-74
2024/01/26 02:09:21;;;;;;;6.95;3.17;;;4.10;99.90;;;;;;4999303;28;20042;-74
2024/01/26 02:11:46;;;;;;;7.13;4.00;;;4.00;99.90;;;;;;4997793;28;20061;-74
2024/01/26 02:14:12;;;;;;;8.43;3.97;;;4.20;99.90;;;;;;4999215;28;20072;-73
2024/01/26 02:16:38;;;;;;;6.55;3.60;;;4.30;99.90;;;;;;4998379;28;20086;-73
2024/01/26 02:19:03;;;;;;;8.85;4.28;;;4.10;99.90;;;;;;4997880;28;20631;-73
2024/01/26 02:21:29;;;;;;;6.55;3.70;;;4.20;99.90;;;;;;4999186;28;20657;-73
2024/01/26 02:23:55;;;;;;;7.00;4.13;;;4.10;99.90;;;;;;4997786;28;20763;-73
2024/01/26 02:26:20;;;;;;;7.22;3.83;;;4.00;99.90;;;;;;4996701;28;20034;-73
2024/01/26 02:28:46;;;;;;;8.02;4.15;;;3.90;99.90;;;;;;4998382;28;20045;-74
2024/01/26 02:31:11;;;;;;;7.78;3.72;;;3.80;99.90;;;;;;4997216;28;20040;-73
2024/01/26 02:33:37;;;;;;;6.85;3.63;;;3.90;99.90;;;;;;4997380;28;20103;-74
2024/01/26 02:36:03;;;;;;;5.93;2.95;;;3.90;99.90;;;;;;4998467;28;20488;-74
2024/01/26 02:38:29;;;;;;;5.65;3.08;;;4.00;99.90;;;;;;4997251;28;20038;-74
2024/01/26 02:40:55;;;;;;;4.43;2.67;;;4.00;99.90;;;;;;4997221;28;20084;-73
2024/01/26 02:43:21;;;;;;;4.90;2.70;;;3.90;99.90;;;;;;4998333;28;20034;-73
2024/01/26 02:45:47;;;;;;;5.40;2.97;;;3.70;99.90;;;;;;4996955;28;20037;-73
2024/01/26 02:48:13;;;;;;;6.28;3.47;;;3.90;99.90;;;;;;4996507;28;20045;-74
2024/01/26 02:50:39;;;;;;;7.57;3.70;;;3.80;99.90;;;;;;4997894;28;20496;-73
2024/01/26 02:53:05;;;;;;;5.63;3.30;;;3.80;99.90;;;;;;4997983;28;20034;-74
2024/01/26 02:55:31;;;;;;;6.45;3.63;;;4.00;99.90;;;;;;4996677;28;20647;-73
2024/01/26 02:57:56;;;;;;;6.18;2.85;;;3.90;99.90;;;;;;4997288;28;20045;-73
2024/01/26 03:00:22;;;;;;;5.72;2.85;;;3.80;99.90;;;;;;4995772;28;20045;-73
2024/01/26 03:02:48;;;;;;;5.28;2.50;;;3.80;99.90;;;;;;4996261;28;20038;-73
2024/01/26 03:05:13;;;;;;;5.32;2.45;;;4.10;99.90;;;;;;4998465;28;20038;-73
2024/01/26 03:07:39;;;;;;;7.50;3.10;;;4.20;99.90;;;;;;4996684;28;20033;-74
2024/01/26 03:10:06;;;;;;;4.78;2.40;;;4.30;99.90;;;;;;4997121;28;20057;-73
2024/01/26 03:12:33;;;;;;;5.90;2.72;;;4.10;99.90;;;;;;4997843;28;20046;-73
2024/01/26 03:15:00;;;;;;;4.75;2.60;;;3.90;99.90;;;;;;4997012;28;20034;-74
2024/01/26 03:17:26;;;;;;;5.20;2.83;;;4.00;99.90;;;;;;4996905;28;20045;-73
2024/01/26 03:19:52;;;;;;;6.43;3.35;;;4.10;99.90;;;;;;4997542;28;20400;-74
2024/01/26 03:22:17;;;;;;;6.75;2.65;;;4.20;99.90;;;;;;4997028;28;20034;-73
2024/01/26 03:24:46;;;;;;;5.72;3.13;;;4.20;99.90;;;;;;4996597;28;20114;-73
2024/01/26 03:27:11;;;;;;;5.53;3.00;;;4.10;99.90;;;;;;4997388;28;20079;-73
2024/01/26 03:29:37;;;;;;;4.90;3.08;;;4.00;99.90;;;;;;4996084;28;20037;-73
2024/01/26 03:32:03;;;;;;;5.95;3.25;;;4.10;99.90;;;;;;4996541;28;20499;-73
2024/01/26 03:34:30;;;;;;;5.00;3.15;;;4.10;99.90;;;;;;4998349;28;21316;-73
2024/01/26 03:36:55;;;;;;;6.60;3.42;;;4.10;99.90;;;;;;4995975;28;20073;-73
2024/01/26 03:39:21;;;;;;;5.38;3.20;;;4.10;99.90;;;;;;4996951;28;20212;-73
2024/01/26 03:41:47;;;;;;;6.55;3.63;;;4.00;99.90;;;;;;4997261;28;20084;-73
2024/01/26 03:44:13;;;;;;;7.47;3.85;;;4.00;99.90;;;;;;4996484;28;20593;-73
2024/01/26 03:46:42;;;;;;;7.05;3.67;;;3.90;99.90;;;;;;4996496;28;20963;-74
2024/01/26 03:49:09;;;;;;;8.10;3.72;;;3.90;99.90;;;;;;4997380;28;20032;-73
2024/01/26 03:51:36;;;;;;;7.65;3.78;;;4.00;99.90;;;;;;4995971;28;20033;-73
2024/01/26 03:54:02;;;;;;;12.20;3.85;;;4.00;99.90;;;;;;4996387;28;20042;-73
2024/01/26 03:56:27;;;;;;;8.45;3.95;;;3.90;99.90;;;;;;4996882;28;20072;-75
2024/01/26 03:58:53;;;;;;;7.38;4.18;;;3.80;99.90;;;;;;4995273;28;20527;-73
2024/01/26 04:01:20;;;;;;;7.50;4.25;;;3.80;99.90;;;;;;4995731;28;20046;-74
2024/01/26 04:03:45;;;;;;;7.97;4.63;;;3.80;99.90;;;;;;4994449;28;20476;-73
2024/01/26 04:06:11;;;;;;;9.05;4.03;;;3.70;99.90;;;;;;4990421;28;20037;-73
2024/01/26 04:08:37;;;;;;;8.85;4.32;;;3.70;99.90;;;;;;4990742;28;20109;-73
2024/01/26 04:11:03;;;;;;;7.10;4.55;;;3.70;99.90;;;;;;4992374;28;20057;-73
2024/01/26 04:13:28;;;;;;;7.82;4.28;;;3.80;99.90;;;;;;4991954;28;20096;-74
2024/01/26 04:15:54;;;;;;;7.38;4.13;;;3.80;99.90;;;;;;4991065;28;20044;-73
2024/01/26 04:18:20;;;;;;;7.95;4.70;;;3.70;99.90;;;;;;4989159;28;20772;-74
2024/01/26 04:20:49;;;;;;;10.23;3.90;;;3.60;99.90;;;;;;4989196;28;20037;-73
2024/01/26 04:23:15;;;;;;;6.10;3.60;;;3.50;99.90;;;;;;4988926;28;20026;-73
2024/01/26 04:25:41;;;;;;;5.97;3.67;;;3.70;99.90;;;;;;4988501;28;20030;-73
2024/01/26 04:28:07;;;;;;;6.93;2.90;;;3.60;99.90;;;;;;4989392;28;20033;-73
2024/01/26 04:30:34;;;;;;;6.47;3.35;;;3.60;99.90;;;;;;4988788;28;20029;-73
2024/01/26 04:33:00;;;;;;;6.18;3.03;;;3.70;99.90;;;;;;4988800;28;20033;-74
2024/01/26 04:35:26;;;;;;;5.43;3.22;;;3.80;99.90;;;;;;4989684;28;20026;-73
2024/01/26 04:37:52;;;;;;;5.90;3.20;;;3.80;99.90;;;;;;4988469;28;20065;-73
2024/01/26 04:40:18;;;;;;;7.70;3.00;;;3.70;99.90;;;;;;4988537;28;20536;-74
2024/01/26 04:42:44;;;;;;;4.70;2.55;;;3.60;99.90;;;;;;4989735;28;20512;-73
2024/01/26 04:45:09;;;;;;;4.65;2.55;;;3.60;99.90;;;;;;4988173;28;20037;-73
2024/01/26 04:47:35;;;;;;;5.82;2.75;;;3.50;99.90;;;;;;4989175;28;20037;-73
2024/01/26 04:50:01;;;;;;;5.55;2.72;;;3.50;99.90;;;;;;4992454;28;20176;-74
2024/01/26 04:52:26;;;;;;;7.25;2.80;;;3.30;99.90;;;;;;4991188;28;20041;-73
2024/01/26 04:54:52;;;;;;;4.43;2.53;;;3.30;99.90;;;;;;4988571;28;20507;-73
2024/01/26 04:57:18;;;;;;;4.50;2.25;;;3.40;99.90;;;;;;4985694;28;20120;-74
2024/01/26 04:59:44;;;;;;;4.25;2.20;;;3.60;99.90;;;;;;4986072;28;20042;-74
2024/01/26 05:02:10;;;;;;;3.97;2.40;;;4.10;99.90;;;;;;4987294;28;20034;-73
2024/01/26 05:04:36;;;;;;;6.90;2.60;;;4.50;99.90;;;;;;4989134;28;20353;-74
2024/01/26 05:07:01;;;;;;;4.47;2.28;;;4.60;99.90;;;;;;4987655;28;20053;-73
2024/01/26 05:09:28;;;;;;;5.60;1.90;;;4.40;99.90;;;;;;4990888;28;21229;-73
2024/01/26 05:11:54;;;;;;;4.05;1.73;;;4.40;99.90;;;;;;4994672;28;20046;-73
2024/01/26 05:14:21;;;;;;;4.97;2.30;;;4.30;99.90;;;;;;4994747;28;20034;-74
2024/01/26 05:16:47;;;;;;;10.13;2.70;;;4.20;99.90;;;;;;4994231;28;20045;-74
2024/01/26 05:19:13;;;;;;;8.65;4.72;;;4.10;99.90;;;;;;4993483;28;20041;-73
2024/01/26 05:21:41;;;;;;;7.47;3.65;;;4.00;99.90;;;;;;4993047;28;20898;-74
2024/01/26 05:24:07;;;;;;;6.03;2.88;;;3.90;99.90;;;;;;4994236;28;20029;-73
2024/01/26 05:26:36;;;;;;;4.43;2.58;;;4.00;99.90;;;;;;4995526;28;20045;-74
2024/01/26 05:29:02;;;;;;;5.65;2.90;;;3.80;99.90;;;;;;4994993;28;20030;-73
2024/01/26 05:31:27;;;;;;;6.07;3.47;;;3.80;99.90;;;;;;4991366;28;20088;-73
2024/01/26 05:33:53;;;;;;;3.80;2.17;;;3.80;99.90;;;;;;4993563;28;20030;-74
2024/01/26 05:36:19;;;;;;;7.55;3.60;;;3.70;99.90;;;;;;4994309;28;20037;-73
2024/01/26 05:38:45;;;;;;;5.47;2.83;;;3.60;99.90;;;;;;4994132;28;20046;-74
2024/01/26 05:41:11;;;;;;;5.53;2.45;;;3.70;99.90;;;;;;4996228;28;20030;-73
2024/01/26 05:43:38;;;;;;;5.90;2.58;;;3.70;99.90;;;;;;4992808;28;20031;-74
2024/01/26 05:46:04;;;;;;;6.30;3.03;;;3.60;99.90;;;;;;4993578;28;20479;-73
2024/01/26 05:48:29;;;;;;;6.05;3.03;;;3.60;99.90;;;;;;4995438;28;20044;-72
2024/01/26 05:50:55;;;;;;;6.28;3.17;;;3.50;99.90;;;;;;4995204;28;20672;-74
2024/01/26 05:53:20;;;;;;;4.43;2.63;;;3.50;99.90;;;;;;4994197;28;20563;-73
2024/01/26 05:55:46;;;;;;;4.20;2.10;;;3.60;99.90;;;;;;4993588;28;20130;-73
2024/01/26 05:58:12;;;;;;;6.93;2.83;;;3.40;99.90;;;;;;4996427;28;20049;-74
2024/01/26 06:00:37;;;;;;;5.07;2.30;;;3.50;99.90;;;;;;4997565;28;20034;-73
2024/01/26 06:03:03;;;;;;;7.13;3.17;;;3.70;99.90;;;;;;4997526;28;20122;-73
2024/01/26 06:05:29;;;;;;;5.50;2.67;;;3.50;99.90;;;;;;4996755;28;20446;-73
2024/01/26 06:07:56;;;;;;;7.78;2.63;;;3.50;99.90;;;;;;4997945;28;20025;-73
2024/01/26 06:10:21;;;;;;;6.70;3.25;;;3.40;99.90;;;;;;4996802;28;20128;-73
2024/01/26 06:12:47;;;;;;;5.88;2.72;;;3.40;99.90;;;;;;4998664;28;20580;-73
2024/01/26 06:15:13;;;;;;;5.53;3.10;;;3.50;99.90;;;;;;4996029;28;20044;-74
2024/01/26 06:17:39;;;;;;;4.30;2.47;;;3.50;99.90;;;;;;4997743;28;20044;-73
2024/01/26 06:20:06;;;;;;;6.07;2.35;;;3.40;99.90;;;;;;4996817;28;20735;-74
2024/01/26 06:22:32;;;;;;;4.70;2.50;;;3.40;99.90;;;;;;4993612;28;21291;-73
2024/01/26 06:24:58;;;;;;;5.13;2.60;;;3.40;99.90;;;;;;4993938;28;20025;-75
2024/01/26 06:27:24;;;;;;;5.55;2.88;;;3.30;99.90;;;;;;4999618;28;20034;-81
2024/01/26 06:29:49;;;;;;;4.65;2.35;;;3.40;99.90;;;;;;4995752;28;20041;-77
2024/01/26 06:32:18;;;;;;;3.67;1.95;;;3.30;99.90;;;;;;5002426;28;20113;-75
2024/01/26 06:34:45;;;;;;;3.85;2.03;;;3.20;99.90;;;;;;4993848;28;20571;-76
2024/01/26 06:37:11;;;;;;;6.40;2.40;;;3.20;99.90;;;;;;4993615;28;20030;-76
2024/01/26 06:39:37;;;;;;;4.72;2.70;;;3.30;99.90;;;;;;4992217;28;20073;-76
2024/01/26 06:42:03;;;;;;;4.28;2.55;;;3.40;99.90;;;;;;4992354;28;20088;-76
2024/01/26 06:44:28;;;;;;;6.22;2.55;;;3.30;99.90;;;;;;4991340;28;20125;-77
2024/01/26 06:46:54;;;;;;;6.78;2.97;;;3.60;99.90;;;;;;4991390;28;21360;-76
2024/01/26 06:49:20;;;;;;;4.80;2.60;;;3.80;99.90;;;;;;4990235;28;20057;-76
2024/01/26 06:51:46;;;;;;;4.75;2.58;;;3.80;99.90;;;;;;4991414;28;20117;-76
2024/01/26 06:54:11;;;;;;;6.72;3.13;;;3.60;99.90;;;;;;4991892;28;20122;-76
2024/01/26 06:56:37;;;;;;;5.20;2.58;;;3.60;99.90;;;;;;4991450;28;20048;-76
2024/01/26 06:59:02;;;;;;;9.40;2.55;;;3.50;99.90;;;;;;4992290;28;20033;-79
2024/01/26 07:01:28;;;;;;;5.47;2.58;;;3.50;99.90;;;;;;4991804;28;20044;-76
2024/01/26 07:03:54;;;;;;;5.25;2.13;;;3.50;99.90;;;;;;4991207;28;20053;-79
2024/01/26 07:06:20;;;;;;;4.82;2.70;;;3.40;99.90;;;;;;4990089;28;20034;-75
2024/01/26 07:08:46;;;;;;;5.78;2.78;;;3.40;99.90;;;;;;4990986;28;20038;-79
2024/01/26 07:11:12;;;;;;;5.00;2.65;;;3.50;99.90;;;;;;4989981;28;20046;-79
2024/01/26 07:13:37;;;;;;;6.80;3.15;;;3.30;99.90;;;;;;4990871;28;20120;-77
2024/01/26 07:16:03;;;;;;;7.47;3.95;;;3.30;99.90;;;;;;4992807;28;20120;-78
2024/01/26 07:18:29;;;;;;;6.68;3.80;;;3.30;99.90;;;;;;4991157;28;20052;-77
2024/01/26 07:20:55;;;;;;;4.57;2.92;;;3.40;99.90;;;;;;4992572;28;20038;-79
2024/01/26 07:23:21;;;;;;;5.32;2.78;;;3.40;99.90;;;;;;4991068;28;20048;-77
2024/01/26 07:25:46;;;;;;;5.70;2.92;;;3.50;99.90;;;;;;4990405;28;20905;-78
2024/01/26 07:28:12;;;;;;;4.28;2.25;;;3.50;99.90;;;;;;4992294;28;20030;-77
2024/01/26 07:30:38;;;;;;;9.00;5.18;;;3.70;99.90;;;;;;4991323;28;20120;-78
2024/01/26 07:33:06;;;;;;;8.93;4.10;;;3.60;99.90;;;;;;4971937;28;20034;-78
2024/01/26 07:35:31;;;;;;;7.25;3.45;;;3.60;99.90;;;;;;4991936;28;20647;-77
2024/01/26 07:37:57;;;;;;;11.07;3.38;;;3.60;99.90;;;;;;4991110;28;20082;-78
2024/01/26 07:40:23;;;;;;;4.35;2.25;;;3.80;99.90;;;;;;4990482;28;20646;-77
2024/01/26 07:42:49;;;;;;;5.03;2.75;;;3.90;99.90;;;;;;4991379;28;20140;-77
2024/01/26 07:45:15;;;;;;;6.18;3.05;;;3.70;99.90;;;;;;4991499;28;20044;-78
2024/01/26 07:47:40;;;;;;;5.13;3.08;;;3.80;99.90;;;;;;4990120;28;20049;-77
2024/01/26 07:50:06;;;;;;;5.85;2.95;;;3.60;99.90;;;;;;4972969;28;20115;-76
2024/01/26 07:52:32;;;;;;;7.65;5.47;;;3.60;99.90;;;;;;4990619;28;20037;-77
2024/01/26 07:54:58;;;;;;;7.82;4.70;;;3.60;99.90;;;;;;4990059;28;20042;-75
2024/01/26 07:57:25;;;;;;;6.88;3.55;;;3.60;99.90;;;;;;4992126;28;20128;-76
2024/01/26 07:59:51;;;;;;;6.75;3.70;;;3.50;99.90;;;;;;4991504;28;20022;-76
2024/01/26 08:02:17;;;;;;;5.13;2.75;;;3.60;99.90;;;;;;4992479;28;20523;-77
2024/01/26 08:04:42;;;;;;;5.13;3.00;;;3.70;99.90;;;;;;4992821;28;20072;-77
2024/01/26 08:07:08;;;;;;;5.90;2.58;;;3.70;99.90;;;;;;4994039;28;20044;-77
2024/01/26 08:09:34;;;;;;;4.63;2.22;;;3.70;99.90;;;;;;4995814;28;20460;-77
2024/01/26 08:12:00;;;;;;;4.82;2.70;;;3.80;99.90;;;;;;4993384;28;20073;-78
2024/01/26 08:14:25;;;;;;;4.35;2.25;;;3.70;99.90;;;;;;4996994;28;20507;-77
2024/01/26 08:16:51;;;;;;;4.60;2.17;;;3.80;99.90;;;;;;4996860;28;20056;-77
2024/01/26 08:19:17;;;;;;;6.63;2.50;;;3.80;99.90;;;;;;4995337;28;20174;-78
2024/01/26 08:21:42;;;;;;;6.28;2.40;;;3.70;99.90;;;;;;4979024;28;20160;-76
2024/01/26 08:24:08;;;;;;;6.28;3.38;;;3.70;99.90;;;;;;4994970;28;20057;-77
2024/01/26 08:26:35;;;;;;;14.27;7.55;;;3.80;99.90;;;;;;4994575;28;20128;-77
2024/01/26 08:29:01;;;;;;;12.70;6.25;;;3.70;99.90;;;;;;4995186;28;20031;-77
2024/01/26 08:31:27;;;;;;;11.35;6.45;;;3.80;99.90;;;;;;4997138;28;20049;-77
2024/01/26 08:33:53;;;;;;;9.40;4.82;;;3.80;99.90;;;;;;5000219;28;20038;-76
2024/01/26 08:36:19;;;;;;;13.07;6.90;;;3.90;99.90;;;;;;4995291;28;20034;-77
2024/01/26 08:38:45;;;;;;;67.40;34.80;;;3.90;99.90;;;;;;4993498;28;20033;-77
2024/01/26 08:41:11;;;;;;;104.30;50.60;;;4.00;99.90;;;;;;4982532;28;20044;-75
2024/01/26 08:43:36;;;;;;;60.42;30.23;;;4.10;99.90;;;;;;4989466;28;22131;-76
2024/01/26 08:46:02;;;;;;;35.83;19.58;;;4.00;99.90;;;;;;4987791;28;20100;-75
2024/01/26 08:48:28;;;;;;;34.80;17.25;;;4.00;99.90;;;;;;4988554;28;20414;-75
2024/01/26 08:50:53;;;;;;;18.17;10.35;;;4.00;99.90;;;;;;4987918;28;20046;-75
2024/01/26 08:53:19;;;;;;;18.55;10.18;;;4.00;99.90;;;;;;4987325;28;20358;-77
2024/01/26 08:55:45;;;;;;;15.50;8.45;;;3.90;99.90;;;;;;4987695;28;20033;-76
2024/01/26 08:58:11;;;;;;;12.35;6.72;;;3.90;99.90;;;;;;4988838;28;20629;-75
2024/01/26 09:00:37;;;;;;;13.18;6.90;;;3.90;99.90;;;;;;4987696;28;20026;-75
2024/01/26 09:03:02;;;;;;;9.18;4.57;;;3.80;99.90;;;;;;4988059;28;21147;-76
2024/01/26 09:05:29;;;;;;;7.60;3.60;;;3.90;99.90;;;;;;4988327;28;20033;-76
2024/01/26 09:07:54;;;;;;;5.80;3.40;;;4.00;99.90;;;;;;4987863;28;20439;-75
2024/01/26 09:10:23;;;;;;;6.50;3.63;;;4.10;99.90;;;;;;4987861;28;20034;-76
2024/01/26 09:12:49;;;;;;;7.70;3.75;;;4.10;99.90;;;;;;4987959;28;20064;-75
2024/01/26 09:15:15;;;;;;;6.18;2.75;;;4.30;99.90;;;;;;4987774;28;20629;-76
2024/01/26 09:17:41;;;;;;;6.70;3.92;;;4.20;99.90;;;;;;4988204;28;20119;-76
2024/01/26 09:20:07;;;;;;;7.43;3.58;;;4.10;99.90;;;;;;4987577;28;20045;-75
2024/01/26 09:22:33;;;;;;;8.98;3.15;;;4.10;99.90;;;;;;4988320;28;20038;-76
2024/01/26 09:24:59;;;;;;;5.80;3.72;;;4.10;99.90;;;;;;4986829;28;20041;-75
2024/01/26 09:27:24;;;;;;;8.20;3.80;;;4.00;99.90;;;;;;4986739;28;20061;-74
2024/01/26 09:29:50;;;;;;;8.35;4.00;;;4.20;99.90;;;;;;4988398;28;20053;-75
2024/01/26 09:32:16;;;;;;;6.65;3.47;;;4.30;99.90;;;;;;4987619;28;20069;-74
2024/01/26 09:34:41;;;;;;;7.80;3.63;;;4.30;99.90;;;;;;4987206;28;20033;-75
2024/01/26 09:37:07;;;;;;;7.55;3.42;;;4.30;99.90;;;;;;4988184;28;20038;-75
2024/01/26 09:39:33;;;;;;;6.43;3.72;;;4.40;99.90;;;;;;4987556;28;20033;-76
2024/01/26 09:41:59;;;;;;;5.20;3.45;;;4.40;99.90;;;;;;4989321;28;20989;-75
2024/01/26 09:44:25;;;;;;;6.10;2.97;;;4.40;99.90;;;;;;4987311;28;20064;-75
2024/01/26 09:46:51;;;;;;;8.18;3.55;;;4.40;99.90;;;;;;4986828;28;20488;-76
2024/01/26 09:49:17;;;;;;;7.63;4.03;;;4.50;99.90;;;;;;4987301;28;20038;-75
2024/01/26 09:51:43;;;;;;;5.53;3.13;;;4.70;99.90;;;;;;4986717;28;20041;-75
2024/01/26 09:54:11;;;;;;;6.85;3.35;;;4.70;99.90;;;;;;4986752;28;20029;-75
2024/01/26 09:56:40;;;;;;;7.57;3.72;;;4.70;99.90;;;;;;4988589;28;20522;-75
2024/01/26 09:59:08;;;;;;;8.23;3.70;;;4.60;99.90;;;;;;4990471;28;20030;-75
2024/01/26 10:01:36;;;;;;;6.70;3.58;;;4.60;99.90;;;;;;4989577;28;20033;-75
2024/01/26 10:04:02;;;;;;;6.45;3.15;;;4.60;99.90;;;;;;4991092;28;20361;-75
2024/01/26 10:06:29;;;;;;;6.07;3.63;;;4.70;99.90;;;;;;4990636;28;20527;-75
2024/01/26 10:08:55;;;;;;;6.70;3.85;;;4.70;99.90;;;;;;4989824;28;20034;-75
2024/01/26 10:11:21;;;;;;;6.60;4.10;;;4.90;99.90;;;;;;4990567;28;20508;-76
2024/01/26 10:13:47;;;;;;;6.78;3.72;;;4.90;99.90;;;;;;4990775;28;20180;-75
2024/01/26 10:16:14;;;;;;;8.63;4.00;;;5.00;99.90;;;;;;4989426;28;20069;-75
2024/01/26 10:18:44;;;;;;;6.20;3.30;;;5.10;99.90;;;;;;4990881;28;20053;-76
2024/01/26 10:21:10;;;;;;;6.13;3.65;;;5.20;99.90;;;;;;4991223;28;20083;-76
2024/01/26 10:23:36;;;;;;;6.43;2.70;;;5.20;99.90;;;;;;4991006;28;20514;-75
2024/01/26 10:26:02;;;;;;;5.82;3.42;;;5.30;99.90;;;;;;4987837;28;20065;-76
2024/01/26 10:28:27;;;;;;;16.08;8.35;;;5.30;99.90;;;;;;4990448;28;20049;-75
2024/01/26 10:30:53;;;;;;;13.50;6.72;;;5.40;99.90;;;;;;4989741;28;20066;-75
2024/01/26 10:33:22;;;;;;;11.20;6.85;;;5.50;99.90;;;;;;4990840;28;20064;-75
2024/01/26 10:35:56;;;;;;;10.70;4.85;;;5.50;99.90;;;;;;4989742;28;20038;-75
2024/01/26 10:38:22;;;;;;;11.52;6.47;;;5.70;99.90;;;;;;4989434;28;20735;-75
2024/01/26 10:40:53;;;;;;;11.48;6.50;;;5.90;99.90;;;;;;4989476;28;20038;-75
2024/01/26 10:43:19;;;;;;;16.85;9.25;;;6.00;99.90;;;;;;4990622;28;20038;-75
2024/01/26 10:45:46;;;;;;;17.65;9.68;;;6.10;99.90;;;;;;4989343;28;20026;-75
2024/01/26 10:48:13;;;;;;;14.98;8.43;;;6.10;99.90;;;;;;4992607;28;20144;-75
2024/01/26 10:50:40;;;;;;;11.40;6.65;;;6.10;99.90;;;;;;4990748;28;20408;-75
2024/01/26 10:53:07;;;;;;;11.13;5.97;;;6.20;99.90;;;;;;4990186;28;20095;-75
2024/01/26 10:55:35;;;;;;;7.47;4.38;;;6.30;99.90;;;;;;4989453;28;20030;-75
2024/01/26 10:58:02;;;;;;;8.80;4.72;;;6.40;99.90;;;;;;4989658;28;20042;-74
2024/01/26 11:00:28;;;;;;;6.88;3.67;;;6.60;99.90;;;;;;4992731;28;20060;-75
2024/01/26 11:02:54;;;;;;;7.82;3.47;;;6.80;99.90;;;;;;4992385;28;20065;-75
2024/01/26 11:05:20;;;;;;;7.85;3.83;;;6.80;99.90;;;;;;4991276;28;20072;-75
2024/01/26 11:07:47;;;;;;;8.50;4.38;;;7.10;99.90;;;;;;4988834;28;20858;-75
2024/01/26 11:10:19;;;;;;;8.68;4.68;;;7.20;99.90;;;;;;4989722;28;20025;-75
2024/01/26 11:12:45;;;;;;;7.18;3.90;;;7.40;99.90;;;;;;4991700;28;20057;-75
2024/01/26 11:15:13;;;;;;;19.95;11.10;;;7.50;99.90;;;;;;4993399;28;20038;-75
2024/01/26 11:17:53;;;;;;;10.23;5.38;;;7.80;99.90;;;;;;4992193;28;20199;-75
2024/01/26 11:20:26;;;;;;;11.18;5.18;;;7.80;99.90;;;;;;4990924;28;20065;-75
2024/01/26 11:22:59;;;;;;;12.43;6.88;;;7.90;99.90;;;;;;4988439;28;20037;-75
2024/01/26 11:25:25;;;;;;;10.70;6.00;;;8.00;99.90;;;;;;4988162;28;20618;-75
2024/01/26 11:28:01;;;;;;;8.48;4.40;;;8.00;99.90;;;;;;4989261;28;20049;-75
2024/01/26 11:30:28;;;;;;;9.60;5.13;;;8.00;99.90;;;;;;4989971;28;20440;-75
2024/01/26 11:32:53;;;;;;;7.78;5.00;;;8.10;99.90;;;;;;4989493;28;20244;-75
2024/01/26 11:35:20;;;;;;;8.63;4.45;;;8.10;99.90;;;;;;4988586;28;20157;-75
2024/01/26 11:37:47;;;;;;;40.00;21.65;;;8.20;99.90;;;;;;4989261;28;20612;-75
2024/01/26 11:40:14;;;;;;;38.25;20.00;;;8.30;99.90;;;;;;4987745;28;21139;-75
2024/01/26 11:42:41;;;;;;;26.33;15.13;;;8.40;99.90;;;;;;4987525;28;20376;-75
2024/01/26 11:45:08;;;;;;;27.38;15.02;;;8.50;99.90;;;;;;4992067;28;20053;-75
2024/01/26 11:47:38;;;;;;;14.55;8.75;;;8.50;99.90;;;;;;4991662;28;20042;-75
2024/01/26 11:50:05;;;;;;;12.05;6.80;;;8.40;99.90;;;;;;4990283;28;20836;-74
2024/01/26 11:52:34;;;;;;;9.68;5.65;;;8.30;99.90;;;;;;4992602;28;20112;-75
2024/01/26 11:55:00;;;;;;;20.30;11.90;;;8.30;99.90;;;;;;4993106;28;20476;-75
2024/01/26 11:57:27;;;;;;;24.10;13.70;;;8.40;99.90;;;;;;4991569;28;20050;-75
2024/01/26 11:59:53;;;;;;;14.40;8.82;;;8.50;99.90;;;;;;4990678;28;20038;-75
2024/01/26 12:02:19;;;;;;;10.13;5.95;;;8.50;99.90;;;;;;4991437;28;20041;-75
2024/01/26 12:04:44;;;;;;;9.25;4.47;;;8.50;99.90;;;;;;4991598;28;20470;-78
2024/01/26 12:07:10;;;;;;;6.63;4.00;;;8.40;99.90;;;;;;5001387;28;20053;-74
2024/01/26 12:09:36;;;;;;;7.93;4.13;;;8.50;99.90;;;;;;5004412;28;20025;-74
2024/01/26 12:12:06;;;;;;;8.18;3.22;;;8.60;99.90;;;;;;5003648;28;20050;-76
2024/01/26 12:14:32;;;;;;;5.20;3.08;;;8.60;99.90;;;;;;5002442;28;20118;-75
2024/01/26 12:16:57;;;;;;;4.38;2.45;;;8.80;99.90;;;;;;4989499;28;20609;-75
2024/01/26 12:19:23;;;;;;;5.03;1.90;;;8.80;99.90;;;;;;4987685;28;20061;-75
2024/01/26 12:21:49;;;;;;;3.85;2.00;;;8.90;99.90;;;;;;4986779;28;20033;-74
2024/01/26 12:24:15;;;;;;;5.03;2.78;;;9.10;99.90;;;;;;4988501;28;20048;-74
2024/01/26 12:26:41;;;;;;;4.25;2.47;;;9.20;99.90;;;;;;4987396;28;20092;-74
2024/01/26 12:29:08;;;;;;;5.00;2.10;;;9.40;99.90;;;;;;4987178;28;20029;-73
2024/01/26 12:31:34;;;;;;;4.30;2.15;;;9.40;99.90;;;;;;4987775;28;20504;-74
2024/01/26 12:34:01;;;;;;;5.45;2.35;;;9.60;99.90;;;;;;4987521;28;20045;-74
2024/01/26 12:36:33;;;;;;;4.15;2.25;;;9.50;99.90;;;;;;4988063;28;20447;-75
2024/01/26 12:39:00;;;;;;;6.72;2.63;;;9.40;99.90;;;;;;4987280;28;20048;-73
2024/01/26 12:41:27;;;;;;;5.68;2.70;;;9.50;99.90;;;;;;4986479;28;20037;-74
2024/01/26 12:43:53;;;;;;;7.28;4.18;;;9.60;99.90;;;;;;4987401;28;20541;-73
2024/01/26 12:46:19;;;;;;;4.72;3.15;;;9.80;99.90;;;;;;4988484;28;20040;-74
2024/01/26 12:48:45;;;;;;;5.65;2.97;;;9.70;99.90;;;;;;4987677;28;20049;-72
2024/01/26 12:51:11;;;;;;;4.78;2.35;;;9.60;99.90;;;;;;4987642;28;20033;-74